F/V Fleur Des Vagues — FPEJ — position and weather

sailwx.info

Track history (hours):
 
Tides and Currents Weather Stations Pressure Air Temp Water Temp Dewpoint Dewpoint Depression Visibility Wind Speed Wind Dir Waves Ship Positions

F/V Fleur Des Vagues

Last reported at 2018-Jan-29 11:55 UTC. Time now 2018-Feb-19 20:13 UTC.
Position N 46°30' W 001°47'.
Warning: this ship's position is 21 days out of date.

Length 16 m.

Type: Fishing. MMSI: 227893000.

Date/timePositionNaut miles runAvg speedWind from/ knotsBaromVisibWave heightAir tempDewpointWater temp
2018-Jan-29 11:55N 46°30' W 001°47'0 0.0
2018-Jan-29 11:28N 46°30' W 001°47'0 0.0
2018-Jan-29 10:58N 46°30' W 001°47'0 0.0
2018-Jan-29 10:28N 46°30' W 001°47'0 0.0
2018-Jan-29 09:58N 46°30' W 001°47'0 0.0
2018-Jan-29 09:28N 46°30' W 001°47'0 0.0
2018-Jan-29 08:58N 46°30' W 001°47'0 0.0
2018-Jan-29 08:28N 46°30' W 001°47'0 0.0
2018-Jan-29 07:58N 46°30' W 001°47'0 0.0
2018-Jan-29 07:28N 46°30' W 001°47'0 0.0
2018-Jan-29 06:58N 46°30' W 001°47'0 0.0
2018-Jan-29 06:28N 46°30' W 001°47'0 0.0
2018-Jan-29 05:58N 46°30' W 001°47'0 0.0
2018-Jan-29 05:28N 46°30' W 001°47'0 0.0
2018-Jan-29 04:58N 46°30' W 001°47'0 0.0
2018-Jan-29 04:28N 46°30' W 001°47'0 0.0
2018-Jan-29 03:58N 46°30' W 001°47'0 0.0
2018-Jan-29 03:28N 46°30' W 001°47'0 0.0
2018-Jan-29 02:58N 46°30' W 001°47'0 0.0
2018-Jan-29 02:28N 46°30' W 001°47'0 0.0
2018-Jan-29 01:58N 46°30' W 001°47'0 0.0
2018-Jan-29 01:28N 46°30' W 001°47'0 0.0
2018-Jan-29 00:58N 46°30' W 001°47'0 0.0
2018-Jan-29 00:28N 46°30' W 001°47'0 0.0
2018-Jan-28 23:58N 46°30' W 001°47'0 0.0
2018-Jan-28 23:28N 46°30' W 001°47'0 0.0
2018-Jan-28 22:58N 46°30' W 001°47'0 0.0
2018-Jan-28 22:28N 46°30' W 001°47'0 0.0
2018-Jan-28 21:58N 46°30' W 001°47'0 0.0
2018-Jan-28 21:28N 46°30' W 001°47'0 0.0
2018-Jan-28 20:58N 46°30' W 001°47'0 0.0
2018-Jan-28 20:28N 46°30' W 001°47'0 0.0
2018-Jan-28 19:58N 46°30' W 001°47'0 0.0
2018-Jan-28 19:28N 46°30' W 001°47'1 1.2
2018-Jan-28 19:00N 46°29' W 001°47'4 8.7
2018-Jan-28 18:30N 46°25' W 001°48'4 8.7
2018-Jan-28 18:00N 46°21' W 001°48'4 8.6
2018-Jan-28 17:30N 46°16' W 001°48'4 8.5
2018-Jan-28 17:00N 46°12' W 001°49'4 8.7
2018-Jan-28 16:30N 46°08' W 001°49'6 0.5
2018-Jan-28 05:16N 46°05' W 001°42'2 8.8
2018-Jan-28 05:00N 46°06' W 001°38'5 9.3
2018-Jan-28 04:31N 46°07' W 001°32'5 9.5
2018-Jan-28 04:01N 46°07' W 001°25'3 5.9
2018-Jan-28 03:30N 46°07' W 001°29'4 8.9
2018-Jan-28 03:00N 46°07' W 001°36'8 8.7
2018-Jan-28 02:02N 46°06' W 001°48'3 0.3
2018-Jan-27 15:06N 46°04' W 001°50'3 1.7
2018-Jan-27 13:10N 46°07' W 001°53'0 1.1
2018-Jan-27 12:58N 46°06' W 001°53'0 0.7
2018-Jan-27 12:25N 46°06' W 001°52'7 0.7
2018-Jan-27 01:09N 46°13' W 001°52'1 8.8
2018-Jan-27 01:00N 46°15' W 001°51'4 8.8
2018-Jan-27 00:30N 46°19' W 001°50'4 8.7
2018-Jan-27 00:00N 46°23' W 001°49'5 8.8
2018-Jan-26 23:29N 46°28' W 001°47'2 4.3
2018-Jan-26 22:58N 46°30' W 001°47'0 0.0
2018-Jan-26 22:28N 46°30' W 001°47'0 0.0
2018-Jan-26 21:58N 46°30' W 001°47'0 0.0
2018-Jan-26 21:28N 46°30' W 001°47'0 0.0
2018-Jan-26 20:58N 46°30' W 001°47'0 0.0
2018-Jan-26 20:28N 46°30' W 001°47'0 0.0
2018-Jan-26 19:58N 46°30' W 001°47'0 0.0
2018-Jan-26 19:28N 46°30' W 001°47'0 0.0
2018-Jan-26 18:58N 46°30' W 001°47'0 0.0
2018-Jan-26 18:28N 46°30' W 001°47'0 0.0
2018-Jan-26 17:58N 46°30' W 001°47'0 0.0
2018-Jan-26 17:28N 46°30' W 001°47'0 0.0
2018-Jan-26 16:58N 46°30' W 001°47'0 0.0
2018-Jan-26 16:25N 46°30' W 001°47'0 0.4
2018-Jan-26 15:58N 46°30' W 001°47'0 0.0
2018-Jan-26 15:22N 46°30' W 001°47'2 5.5
2018-Jan-26 15:00N 46°28' W 001°47'4 8.9
2018-Jan-26 14:30N 46°23' W 001°48'4 8.7
2018-Jan-26 14:00N 46°19' W 001°48'4 8.7
2018-Jan-26 13:30N 46°15' W 001°49'4 8.9
2018-Jan-26 13:00N 46°10' W 001°50'4 1.3
2018-Jan-26 10:12N 46°07' W 001°50'2 8.2
2018-Jan-26 10:00N 46°09' W 001°50'4 8.2
2018-Jan-26 09:31N 46°13' W 001°49'4 8.3
2018-Jan-26 09:00N 46°17' W 001°48'4 8.4
2018-Jan-26 08:31N 46°21' W 001°48'4 8.3
2018-Jan-26 08:01N 46°25' W 001°47'4 8.6
2018-Jan-26 07:30N 46°29' W 001°47'1 1.3
2018-Jan-26 06:58N 46°30' W 001°47'0 0.0
2018-Jan-25 10:07N 46°30' W 001°47'0 0.0
2018-Jan-25 09:58N 46°30' W 001°47'0 0.0
2018-Jan-25 09:28N 46°30' W 001°47'0 0.0
2018-Jan-25 08:58N 46°30' W 001°47'0 0.0
2018-Jan-25 08:28N 46°30' W 001°47'0 0.0
2018-Jan-25 07:58N 46°30' W 001°47'  
Track history (hours):
 
Tides and Currents Weather Stations Pressure Air Temp Water Temp Dewpoint Dewpoint Depression Visibility Wind Speed Wind Dir Waves Ship Positions

F/V Fleur Des Vagues

Last reported at 2018-Jan-29 11:55 UTC. Time now 2018-Feb-19 20:13 UTC.
Position N 46°30' W 001°47'.
Warning: this ship's position is 21 days out of date.

Length 16 m.

Type: Fishing. MMSI: 227893000.

Date/timePositionNaut miles runAvg speedWind from/ knotsBaromVisibWave heightAir tempDewpointWater temp
2018-Jan-29 11:55N 46°30' W 001°47'0 0.0
2018-Jan-29 11:28N 46°30' W 001°47'0 0.0
2018-Jan-29 10:58N 46°30' W 001°47'0 0.0
2018-Jan-29 10:28N 46°30' W 001°47'0 0.0
2018-Jan-29 09:58N 46°30' W 001°47'0 0.0
2018-Jan-29 09:28N 46°30' W 001°47'0 0.0
2018-Jan-29 08:58N 46°30' W 001°47'0 0.0
2018-Jan-29 08:28N 46°30' W 001°47'0 0.0
2018-Jan-29 07:58N 46°30' W 001°47'0 0.0
2018-Jan-29 07:28N 46°30' W 001°47'0 0.0
2018-Jan-29 06:58N 46°30' W 001°47'0 0.0
2018-Jan-29 06:28N 46°30' W 001°47'0 0.0
2018-Jan-29 05:58N 46°30' W 001°47'0 0.0
2018-Jan-29 05:28N 46°30' W 001°47'0 0.0
2018-Jan-29 04:58N 46°30' W 001°47'0 0.0
2018-Jan-29 04:28N 46°30' W 001°47'0 0.0
2018-Jan-29 03:58N 46°30' W 001°47'0 0.0
2018-Jan-29 03:28N 46°30' W 001°47'0 0.0
2018-Jan-29 02:58N 46°30' W 001°47'0 0.0
2018-Jan-29 02:28N 46°30' W 001°47'0 0.0
2018-Jan-29 01:58N 46°30' W 001°47'0 0.0
2018-Jan-29 01:28N 46°30' W 001°47'0 0.0
2018-Jan-29 00:58N 46°30' W 001°47'0 0.0
2018-Jan-29 00:28N 46°30' W 001°47'0 0.0
2018-Jan-28 23:58N 46°30' W 001°47'0 0.0
2018-Jan-28 23:28N 46°30' W 001°47'0 0.0
2018-Jan-28 22:58N 46°30' W 001°47'0 0.0
2018-Jan-28 22:28N 46°30' W 001°47'0 0.0
2018-Jan-28 21:58N 46°30' W 001°47'0 0.0
2018-Jan-28 21:28N 46°30' W 001°47'0 0.0
2018-Jan-28 20:58N 46°30' W 001°47'0 0.0
2018-Jan-28 20:28N 46°30' W 001°47'0 0.0
2018-Jan-28 19:58N 46°30' W 001°47'0 0.0
2018-Jan-28 19:28N 46°30' W 001°47'1 1.2
2018-Jan-28 19:00N 46°29' W 001°47'4 8.7
2018-Jan-28 18:30N 46°25' W 001°48'4 8.7
2018-Jan-28 18:00N 46°21' W 001°48'4 8.6
2018-Jan-28 17:30N 46°16' W 001°48'4 8.5
2018-Jan-28 17:00N 46°12' W 001°49'4 8.7
2018-Jan-28 16:30N 46°08' W 001°49'6 0.5
2018-Jan-28 05:16N 46°05' W 001°42'2 8.8
2018-Jan-28 05:00N 46°06' W 001°38'5 9.3
2018-Jan-28 04:31N 46°07' W 001°32'5 9.5
2018-Jan-28 04:01N 46°07' W 001°25'3 5.9
2018-Jan-28 03:30N 46°07' W 001°29'4 8.9
2018-Jan-28 03:00N 46°07' W 001°36'8 8.7
2018-Jan-28 02:02N 46°06' W 001°48'3 0.3
2018-Jan-27 15:06N 46°04' W 001°50'3 1.7
2018-Jan-27 13:10N 46°07' W 001°53'0 1.1
2018-Jan-27 12:58N 46°06' W 001°53'0 0.7
2018-Jan-27 12:25N 46°06' W 001°52'7 0.7
2018-Jan-27 01:09N 46°13' W 001°52'1 8.8
2018-Jan-27 01:00N 46°15' W 001°51'4 8.8
2018-Jan-27 00:30N 46°19' W 001°50'4 8.7
2018-Jan-27 00:00N 46°23' W 001°49'5 8.8
2018-Jan-26 23:29N 46°28' W 001°47'2 4.3
2018-Jan-26 22:58N 46°30' W 001°47'0 0.0
2018-Jan-26 22:28N 46°30' W 001°47'0 0.0
2018-Jan-26 21:58N 46°30' W 001°47'0 0.0
2018-Jan-26 21:28N 46°30' W 001°47'0 0.0
2018-Jan-26 20:58N 46°30' W 001°47'0 0.0
2018-Jan-26 20:28N 46°30' W 001°47'0 0.0
2018-Jan-26 19:58N 46°30' W 001°47'0 0.0
2018-Jan-26 19:28N 46°30' W 001°47'0 0.0
2018-Jan-26 18:58N 46°30' W 001°47'0 0.0
2018-Jan-26 18:28N 46°30' W 001°47'0 0.0
2018-Jan-26 17:58N 46°30' W 001°47'0 0.0
2018-Jan-26 17:28N 46°30' W 001°47'0 0.0
2018-Jan-26 16:58N 46°30' W 001°47'0 0.0
2018-Jan-26 16:25N 46°30' W 001°47'0 0.4
2018-Jan-26 15:58N 46°30' W 001°47'0 0.0
2018-Jan-26 15:22N 46°30' W 001°47'2 5.5
2018-Jan-26 15:00N 46°28' W 001°47'4 8.9
2018-Jan-26 14:30N 46°23' W 001°48'4 8.7
2018-Jan-26 14:00N 46°19' W 001°48'4 8.7
2018-Jan-26 13:30N 46°15' W 001°49'4 8.9
2018-Jan-26 13:00N 46°10' W 001°50'4 1.3
2018-Jan-26 10:12N 46°07' W 001°50'2 8.2
2018-Jan-26 10:00N 46°09' W 001°50'4 8.2
2018-Jan-26 09:31N 46°13' W 001°49'4 8.3
2018-Jan-26 09:00N 46°17' W 001°48'4 8.4
2018-Jan-26 08:31N 46°21' W 001°48'4 8.3
2018-Jan-26 08:01N 46°25' W 001°47'4 8.6
2018-Jan-26 07:30N 46°29' W 001°47'1 1.3
2018-Jan-26 06:58N 46°30' W 001°47'0 0.0
2018-Jan-25 10:07N 46°30' W 001°47'0 0.0
2018-Jan-25 09:58N 46°30' W 001°47'0 0.0
2018-Jan-25 09:28N 46°30' W 001°47'0 0.0
2018-Jan-25 08:58N 46°30' W 001°47'0 0.0
2018-Jan-25 08:28N 46°30' W 001°47'0 0.0
2018-Jan-25 07:58N 46°30' W 001°47'  

Dump ship's entire track history